sensor_id;sensor_type;location;lat;lon;timestamp;temperature;humidity
6379;DHT22;3222;48.858;10.128;2023-07-28T00:02:09;16.90;99.90
6379;DHT22;3222;48.858;10.128;2023-07-28T00:04:35;16.90;99.90
6379;DHT22;3222;48.858;10.128;2023-07-28T00:07:02;16.90;99.90
6379;DHT22;3222;48.858;10.128;2023-07-28T00:09:28;17.00;99.90
6379;DHT22;3222;48.858;10.128;2023-07-28T00:11:53;17.00;99.90
6379;DHT22;3222;48.858;10.128;2023-07-28T00:14:19;17.00;99.90
6379;DHT22;3222;48.858;10.128;2023-07-28T00:16:45;16.90;99.90
6379;DHT22;3222;48.858;10.128;2023-07-28T00:19:11;17.00;99.90
6379;DHT22;3222;48.858;10.128;2023-07-28T00:21:37;16.90;99.90
6379;DHT22;3222;48.858;10.128;2023-07-28T00:24:03;16.80;99.90
6379;DHT22;3222;48.858;10.128;2023-07-28T00:26:29;16.80;99.90
6379;DHT22;3222;48.858;10.128;2023-07-28T00:28:54;16.90;99.90
6379;DHT22;3222;48.858;10.128;2023-07-28T00:31:20;16.90;99.90
6379;DHT22;3222;48.858;10.128;2023-07-28T00:33:46;16.80;99.90
6379;DHT22;3222;48.858;10.128;2023-07-28T00:36:11;16.80;99.90
6379;DHT22;3222;48.858;10.128;2023-07-28T00:38:37;16.80;99.90
6379;DHT22;3222;48.858;10.128;2023-07-28T00:41:03;17.00;99.90
6379;DHT22;3222;48.858;10.128;2023-07-28T00:43:29;16.90;99.90
6379;DHT22;3222;48.858;10.128;2023-07-28T00:45:54;16.90;99.90
6379;DHT22;3222;48.858;10.128;2023-07-28T00:48:20;17.00;99.90
6379;DHT22;3222;48.858;10.128;2023-07-28T00:50:48;17.10;99.90
6379;DHT22;3222;48.858;10.128;2023-07-28T00:53:15;17.00;99.90
6379;DHT22;3222;48.858;10.128;2023-07-28T00:55:41;16.90;99.90
6379;DHT22;3222;48.858;10.128;2023-07-28T00:58:08;17.00;99.90
6379;DHT22;3222;48.858;10.128;2023-07-28T01:00:34;17.00;99.90
6379;DHT22;3222;48.858;10.128;2023-07-28T01:03:00;16.90;99.90
6379;DHT22;3222;48.858;10.128;2023-07-28T01:05:32;17.00;99.90
6379;DHT22;3222;48.858;10.128;2023-07-28T01:08:01;17.00;99.90
6379;DHT22;3222;48.858;10.128;2023-07-28T01:10:32;16.90;99.90
6379;DHT22;3222;48.858;10.128;2023-07-28T01:12:58;16.90;99.90
6379;DHT22;3222;48.858;10.128;2023-07-28T01:15:24;16.90;99.90
6379;DHT22;3222;48.858;10.128;2023-07-28T01:17:51;16.80;99.90
6379;DHT22;3222;48.858;10.128;2023-07-28T01:20:18;16.90;99.90
6379;DHT22;3222;48.858;10.128;2023-07-28T01:28:15;16.70;99.90
6379;DHT22;3222;48.858;10.128;2023-07-28T01:30:42;16.80;99.90
6379;DHT22;3222;48.858;10.128;2023-07-28T01:33:08;16.80;99.90
6379;DHT22;3222;48.858;10.128;2023-07-28T01:35:36;16.70;99.90
6379;DHT22;3222;48.858;10.128;2023-07-28T01:38:05;16.60;99.90
6379;DHT22;3222;48.858;10.128;2023-07-28T01:40:31;16.60;99.90
6379;DHT22;3222;48.858;10.128;2023-07-28T01:42:56;16.50;99.90
6379;DHT22;3222;48.858;10.128;2023-07-28T01:45:23;16.50;99.90
6379;DHT22;3222;48.858;10.128;2023-07-28T01:47:48;16.50;99.90
6379;DHT22;3222;48.858;10.128;2023-07-28T01:50:14;16.50;99.90
6379;DHT22;3222;48.858;10.128;2023-07-28T01:52:40;16.60;99.90
6379;DHT22;3222;48.858;10.128;2023-07-28T01:55:06;16.60;99.90
6379;DHT22;3222;48.858;10.128;2023-07-28T01:57:33;16.60;99.90
6379;DHT22;3222;48.858;10.128;2023-07-28T01:59:59;16.60;99.90
6379;DHT22;3222;48.858;10.128;2023-07-28T02:02:25;16.50;99.90
6379;DHT22;3222;48.858;10.128;2023-07-28T02:04:50;16.50;99.90
6379;DHT22;3222;48.858;10.128;2023-07-28T02:07:16;16.50;99.90
6379;DHT22;3222;48.858;10.128;2023-07-28T02:09:42;16.40;99.90
6379;DHT22;3222;48.858;10.128;2023-07-28T02:12:08;16.40;99.90
6379;DHT22;3222;48.858;10.128;2023-07-28T02:14:33;16.40;99.90
6379;DHT22;3222;48.858;10.128;2023-07-28T02:16:59;16.30;99.90
6379;DHT22;3222;48.858;10.128;2023-07-28T02:19:25;16.40;99.90
6379;DHT22;3222;48.858;10.128;2023-07-28T02:21:51;16.40;99.90
6379;DHT22;3222;48.858;10.128;2023-07-28T02:24:16;16.50;99.90
6379;DHT22;3222;48.858;10.128;2023-07-28T02:26:42;16.50;99.90
6379;DHT22;3222;48.858;10.128;2023-07-28T02:29:08;16.50;99.90
6379;DHT22;3222;48.858;10.128;2023-07-28T02:31:33;16.50;99.90
6379;DHT22;3222;48.858;10.128;2023-07-28T02:33:59;16.40;99.90
6379;DHT22;3222;48.858;10.128;2023-07-28T02:36:24;16.50;99.90
6379;DHT22;3222;48.858;10.128;2023-07-28T02:38:50;16.40;99.90
6379;DHT22;3222;48.858;10.128;2023-07-28T02:41:17;16.60;99.90
6379;DHT22;3222;48.858;10.128;2023-07-28T02:43:43;16.60;99.90
6379;DHT22;3222;48.858;10.128;2023-07-28T02:46:08;16.60;99.90
6379;DHT22;3222;48.858;10.128;2023-07-28T02:48:34;16.50;99.90
6379;DHT22;3222;48.858;10.128;2023-07-28T02:50:59;16.60;99.90
6379;DHT22;3222;48.858;10.128;2023-07-28T02:53:25;16.60;99.90
6379;DHT22;3222;48.858;10.128;2023-07-28T02:55:51;16.60;99.90
6379;DHT22;3222;48.858;10.128;2023-07-28T02:58:17;16.60;99.90
6379;DHT22;3222;48.858;10.128;2023-07-28T03:00:43;16.60;99.90
6379;DHT22;3222;48.858;10.128;2023-07-28T03:03:12;16.60;99.90
6379;DHT22;3222;48.858;10.128;2023-07-28T03:05:39;16.60;99.90
6379;DHT22;3222;48.858;10.128;2023-07-28T03:08:15;16.60;99.90
6379;DHT22;3222;48.858;10.128;2023-07-28T03:10:41;16.70;99.90
6379;DHT22;3222;48.858;10.128;2023-07-28T03:13:07;16.70;99.90
6379;DHT22;3222;48.858;10.128;2023-07-28T03:15:33;16.60;99.90
6379;DHT22;3222;48.858;10.128;2023-07-28T03:17:59;16.70;99.90
6379;DHT22;3222;48.858;10.128;2023-07-28T03:20:24;16.60;99.90
6379;DHT22;3222;48.858;10.128;2023-07-28T03:22:51;16.60;99.90
6379;DHT22;3222;48.858;10.128;2023-07-28T03:25:16;16.60;99.90
6379;DHT22;3222;48.858;10.128;2023-07-28T03:27:42;16.50;99.90
6379;DHT22;3222;48.858;10.128;2023-07-28T03:30:09;16.50;99.90
6379;DHT22;3222;48.858;10.128;2023-07-28T03:32:36;16.50;99.90
6379;DHT22;3222;48.858;10.128;2023-07-28T03:35:03;16.40;99.90
6379;DHT22;3222;48.858;10.128;2023-07-28T03:37:34;16.40;99.90
6379;DHT22;3222;48.858;10.128;2023-07-28T03:40:00;16.40;99.90
6379;DHT22;3222;48.858;10.128;2023-07-28T03:42:35;16.40;99.90
6379;DHT22;3222;48.858;10.128;2023-07-28T03:45:01;16.40;99.90
6379;DHT22;3222;48.858;10.128;2023-07-28T03:47:27;16.40;99.90
6379;DHT22;3222;48.858;10.128;2023-07-28T03:49:53;16.50;99.90
6379;DHT22;3222;48.858;10.128;2023-07-28T03:52:19;16.60;99.90
6379;DHT22;3222;48.858;10.128;2023-07-28T03:54:44;16.50;99.90
6379;DHT22;3222;48.858;10.128;2023-07-28T03:57:10;16.60;99.90
6379;DHT22;3222;48.858;10.128;2023-07-28T03:59:36;16.70;99.90
6379;DHT22;3222;48.858;10.128;2023-07-28T04:02:01;16.60;99.90
6379;DHT22;3222;48.858;10.128;2023-07-28T04:04:28;16.60;99.90
6379;DHT22;3222;48.858;10.128;2023-07-28T04:06:53;16.70;99.90
6379;DHT22;3222;48.858;10.128;2023-07-28T04:09:19;16.70;99.90
6379;DHT22;3222;48.858;10.128;2023-07-28T04:11:46;16.70;99.90
6379;DHT22;3222;48.858;10.128;2023-07-28T04:14:12;16.60;99.90
6379;DHT22;3222;48.858;10.128;2023-07-28T04:16:38;16.60;99.90
6379;DHT22;3222;48.858;10.128;2023-07-28T04:19:04;16.60;99.90
6379;DHT22;3222;48.858;10.128;2023-07-28T04:21:30;16.60;99.90
6379;DHT22;3222;48.858;10.128;2023-07-28T04:23:56;16.60;99.90
6379;DHT22;3222;48.858;10.128;2023-07-28T04:26:24;16.70;99.90
6379;DHT22;3222;48.858;10.128;2023-07-28T04:28:55;16.80;99.90
6379;DHT22;3222;48.858;10.128;2023-07-28T04:31:21;16.80;99.90
6379;DHT22;3222;48.858;10.128;2023-07-28T04:33:56;16.80;99.90
6379;DHT22;3222;48.858;10.128;2023-07-28T04:36:24;16.70;99.90
6379;DHT22;3222;48.858;10.128;2023-07-28T04:38:49;16.70;99.90
6379;DHT22;3222;48.858;10.128;2023-07-28T04:41:15;16.60;99.90
6379;DHT22;3222;48.858;10.128;2023-07-28T04:43:48;16.60;99.90
6379;DHT22;3222;48.858;10.128;2023-07-28T04:46:14;16.50;99.90
6379;DHT22;3222;48.858;10.128;2023-07-28T04:48:42;16.60;99.90
6379;DHT22;3222;48.858;10.128;2023-07-28T04:51:27;16.70;99.90
6379;DHT22;3222;48.858;10.128;2023-07-28T04:54:22;16.70;99.90
6379;DHT22;3222;48.858;10.128;2023-07-28T04:56:48;16.70;99.90
6379;DHT22;3222;48.858;10.128;2023-07-28T04:59:15;16.60;99.90
6379;DHT22;3222;48.858;10.128;2023-07-28T05:01:41;16.60;99.90
6379;DHT22;3222;48.858;10.128;2023-07-28T05:04:07;16.70;99.90
6379;DHT22;3222;48.858;10.128;2023-07-28T05:06:33;16.60;99.90
6379;DHT22;3222;48.858;10.128;2023-07-28T05:08:58;16.60;99.90
6379;DHT22;3222;48.858;10.128;2023-07-28T05:11:32;16.60;99.90
6379;DHT22;3222;48.858;10.128;2023-07-28T05:13:58;16.50;99.90
6379;DHT22;3222;48.858;10.128;2023-07-28T05:16:23;16.50;99.90
6379;DHT22;3222;48.858;10.128;2023-07-28T05:19:07;16.50;99.90
6379;DHT22;3222;48.858;10.128;2023-07-28T05:21:42;16.50;99.90
6379;DHT22;3222;48.858;10.128;2023-07-28T05:24:10;16.60;99.90
6379;DHT22;3222;48.858;10.128;2023-07-28T05:26:37;16.50;99.90
6379;DHT22;3222;48.858;10.128;2023-07-28T05:29:03;16.50;99.90
6379;DHT22;3222;48.858;10.128;2023-07-28T05:31:28;16.50;99.90
6379;DHT22;3222;48.858;10.128;2023-07-28T05:33:54;16.50;99.90
6379;DHT22;3222;48.858;10.128;2023-07-28T05:36:20;16.60;99.90
6379;DHT22;3222;48.858;10.128;2023-07-28T05:38:47;16.50;99.90
6379;DHT22;3222;48.858;10.128;2023-07-28T05:41:13;16.50;99.90
6379;DHT22;3222;48.858;10.128;2023-07-28T05:43:40;16.60;99.90
6379;DHT22;3222;48.858;10.128;2023-07-28T05:46:05;16.50;99.90
6379;DHT22;3222;48.858;10.128;2023-07-28T05:48:34;16.50;99.90
6379;DHT22;3222;48.858;10.128;2023-07-28T05:51:00;16.50;99.90
6379;DHT22;3222;48.858;10.128;2023-07-28T05:53:25;16.60;99.90
6379;DHT22;3222;48.858;10.128;2023-07-28T05:55:56;16.60;99.90
6379;DHT22;3222;48.858;10.128;2023-07-28T05:58:23;16.60;99.90
6379;DHT22;3222;48.858;10.128;2023-07-28T06:00:49;16.50;99.90
6379;DHT22;3222;48.858;10.128;2023-07-28T06:03:34;16.60;99.90
6379;DHT22;3222;48.858;10.128;2023-07-28T06:06:10;16.50;99.90
6379;DHT22;3222;48.858;10.128;2023-07-28T06:08:36;16.50;99.90
6379;DHT22;3222;48.858;10.128;2023-07-28T06:11:06;16.60;99.90
6379;DHT22;3222;48.858;10.128;2023-07-28T06:13:32;16.60;99.90
6379;DHT22;3222;48.858;10.128;2023-07-28T06:15:58;16.60;99.90
6379;DHT22;3222;48.858;10.128;2023-07-28T06:18:25;16.60;99.90
6379;DHT22;3222;48.858;10.128;2023-07-28T06:21:00;16.60;99.90
6379;DHT22;3222;48.858;10.128;2023-07-28T06:23:26;16.70;99.90
6379;DHT22;3222;48.858;10.128;2023-07-28T06:25:54;16.70;99.90
6379;DHT22;3222;48.858;10.128;2023-07-28T06:28:22;16.70;99.90
6379;DHT22;3222;48.858;10.128;2023-07-28T06:30:56;16.80;99.90
6379;DHT22;3222;48.858;10.128;2023-07-28T06:33:24;16.70;99.90
6379;DHT22;3222;48.858;10.128;2023-07-28T06:35:50;16.80;99.90
6379;DHT22;3222;48.858;10.128;2023-07-28T06:38:17;16.80;99.90
6379;DHT22;3222;48.858;10.128;2023-07-28T06:40:43;16.90;99.90
6379;DHT22;3222;48.858;10.128;2023-07-28T06:43:09;16.90;99.90
6379;DHT22;3222;48.858;10.128;2023-07-28T06:45:35;17.00;99.90
6379;DHT22;3222;48.858;10.128;2023-07-28T06:48:01;17.00;99.90
6379;DHT22;3222;48.858;10.128;2023-07-28T06:50:27;17.00;99.90
6379;DHT22;3222;48.858;10.128;2023-07-28T06:52:52;17.10;99.90
6379;DHT22;3222;48.858;10.128;2023-07-28T06:55:22;17.00;99.90
6379;DHT22;3222;48.858;10.128;2023-07-28T06:57:48;17.00;99.90
6379;DHT22;3222;48.858;10.128;2023-07-28T07:00:16;17.00;99.90
6379;DHT22;3222;48.858;10.128;2023-07-28T07:02:44;17.00;99.90
6379;DHT22;3222;48.858;10.128;2023-07-28T07:05:10;17.10;99.90
6379;DHT22;3222;48.858;10.128;2023-07-28T07:07:35;17.00;99.90
6379;DHT22;3222;48.858;10.128;2023-07-28T07:10:01;17.00;99.90
6379;DHT22;3222;48.858;10.128;2023-07-28T07:12:27;17.10;99.90
6379;DHT22;3222;48.858;10.128;2023-07-28T07:14:53;17.10;99.90
6379;DHT22;3222;48.858;10.128;2023-07-28T07:17:19;17.00;99.90
6379;DHT22;3222;48.858;10.128;2023-07-28T07:19:45;17.00;99.90
6379;DHT22;3222;48.858;10.128;2023-07-28T07:22:11;17.10;99.90
6379;DHT22;3222;48.858;10.128;2023-07-28T07:24:36;17.20;99.90
6379;DHT22;3222;48.858;10.128;2023-07-28T07:27:03;17.20;99.90
6379;DHT22;3222;48.858;10.128;2023-07-28T07:29:29;17.10;99.90
6379;DHT22;3222;48.858;10.128;2023-07-28T07:31:55;17.20;99.90
6379;DHT22;3222;48.858;10.128;2023-07-28T07:34:22;17.10;99.90
6379;DHT22;3222;48.858;10.128;2023-07-28T07:36:49;17.20;99.90
6379;DHT22;3222;48.858;10.128;2023-07-28T07:39:15;17.20;99.90
6379;DHT22;3222;48.858;10.128;2023-07-28T07:41:41;17.20;99.90
6379;DHT22;3222;48.858;10.128;2023-07-28T07:44:06;17.20;99.90
6379;DHT22;3222;48.858;10.128;2023-07-28T07:46:32;17.20;99.90
6379;DHT22;3222;48.858;10.128;2023-07-28T07:48:58;17.30;99.90
6379;DHT22;3222;48.858;10.128;2023-07-28T07:51:23;17.30;99.90
6379;DHT22;3222;48.858;10.128;2023-07-28T07:53:49;17.40;99.90
6379;DHT22;3222;48.858;10.128;2023-07-28T07:56:15;17.50;99.90
6379;DHT22;3222;48.858;10.128;2023-07-28T07:58:41;17.40;99.90
6379;DHT22;3222;48.858;10.128;2023-07-28T08:01:06;17.40;99.90
6379;DHT22;3222;48.858;10.128;2023-07-28T08:03:32;17.30;99.90
6379;DHT22;3222;48.858;10.128;2023-07-28T08:05:58;17.40;99.90
6379;DHT22;3222;48.858;10.128;2023-07-28T08:08:23;17.50;99.90
6379;DHT22;3222;48.858;10.128;2023-07-28T08:10:50;17.60;99.90
6379;DHT22;3222;48.858;10.128;2023-07-28T08:13:15;17.60;99.90
6379;DHT22;3222;48.858;10.128;2023-07-28T08:15:44;17.60;99.90
6379;DHT22;3222;48.858;10.128;2023-07-28T08:18:11;17.60;99.90
6379;DHT22;3222;48.858;10.128;2023-07-28T08:20:37;17.60;99.90
6379;DHT22;3222;48.858;10.128;2023-07-28T08:23:03;17.70;99.90
6379;DHT22;3222;48.858;10.128;2023-07-28T08:25:29;17.80;99.90
6379;DHT22;3222;48.858;10.128;2023-07-28T08:27:54;17.90;99.90
6379;DHT22;3222;48.858;10.128;2023-07-28T08:30:20;17.90;99.90
6379;DHT22;3222;48.858;10.128;2023-07-28T08:32:46;18.00;99.90
6379;DHT22;3222;48.858;10.128;2023-07-28T08:35:12;18.00;99.90
6379;DHT22;3222;48.858;10.128;2023-07-28T08:37:37;18.00;99.90
6379;DHT22;3222;48.858;10.128;2023-07-28T08:40:04;18.10;99.90
6379;DHT22;3222;48.858;10.128;2023-07-28T08:42:31;18.20;99.90
6379;DHT22;3222;48.858;10.128;2023-07-28T08:45:01;18.20;99.90
6379;DHT22;3222;48.858;10.128;2023-07-28T08:47:26;18.10;99.90
6379;DHT22;3222;48.858;10.128;2023-07-28T08:49:52;18.20;99.90
6379;DHT22;3222;48.858;10.128;2023-07-28T08:52:18;18.20;99.90
6379;DHT22;3222;48.858;10.128;2023-07-28T08:54:44;18.20;99.90
6379;DHT22;3222;48.858;10.128;2023-07-28T08:57:10;18.20;99.90
6379;DHT22;3222;48.858;10.128;2023-07-28T08:59:36;18.30;99.90
6379;DHT22;3222;48.858;10.128;2023-07-28T09:02:04;18.30;99.90
6379;DHT22;3222;48.858;10.128;2023-07-28T09:04:32;18.30;99.90
6379;DHT22;3222;48.858;10.128;2023-07-28T09:06:57;18.30;99.90
6379;DHT22;3222;48.858;10.128;2023-07-28T09:09:23;18.30;99.90
6379;DHT22;3222;48.858;10.128;2023-07-28T09:11:53;18.10;99.90
6379;DHT22;3222;48.858;10.128;2023-07-28T09:14:20;18.10;99.90
6379;DHT22;3222;48.858;10.128;2023-07-28T09:16:47;18.10;99.90
6379;DHT22;3222;48.858;10.128;2023-07-28T09:19:13;18.10;99.90
6379;DHT22;3222;48.858;10.128;2023-07-28T09:21:41;18.00;99.90
6379;DHT22;3222;48.858;10.128;2023-07-28T09:24:09;17.90;99.90
6379;DHT22;3222;48.858;10.128;2023-07-28T09:26:37;18.10;99.90
6379;DHT22;3222;48.858;10.128;2023-07-28T09:29:17;18.00;99.90
6379;DHT22;3222;48.858;10.128;2023-07-28T09:31:44;18.00;99.90
6379;DHT22;3222;48.858;10.128;2023-07-28T09:34:11;18.10;99.90
6379;DHT22;3222;48.858;10.128;2023-07-28T09:36:37;18.10;99.90
6379;DHT22;3222;48.858;10.128;2023-07-28T09:39:04;18.00;99.90
6379;DHT22;3222;48.858;10.128;2023-07-28T09:41:35;18.00;99.90
6379;DHT22;3222;48.858;10.128;2023-07-28T09:44:01;18.00;99.90
6379;DHT22;3222;48.858;10.128;2023-07-28T09:46:28;18.00;99.90
6379;DHT22;3222;48.858;10.128;2023-07-28T09:48:57;18.00;99.90
6379;DHT22;3222;48.858;10.128;2023-07-28T09:51:30;18.10;99.90
6379;DHT22;3222;48.858;10.128;2023-07-28T09:54:03;18.00;99.90
6379;DHT22;3222;48.858;10.128;2023-07-28T09:56:30;18.00;99.90
6379;DHT22;3222;48.858;10.128;2023-07-28T09:58:57;18.10;99.90
6379;DHT22;3222;48.858;10.128;2023-07-28T10:01:23;18.10;99.90
6379;DHT22;3222;48.858;10.128;2023-07-28T10:03:50;18.00;99.90
6379;DHT22;3222;48.858;10.128;2023-07-28T10:06:19;17.90;99.90
6379;DHT22;3222;48.858;10.128;2023-07-28T10:08:45;18.00;99.90
6379;DHT22;3222;48.858;10.128;2023-07-28T10:11:15;17.90;99.90
6379;DHT22;3222;48.858;10.128;2023-07-28T10:13:43;18.00;99.90
6379;DHT22;3222;48.858;10.128;2023-07-28T10:16:10;18.00;99.90
6379;DHT22;3222;48.858;10.128;2023-07-28T10:18:36;17.90;99.90
6379;DHT22;3222;48.858;10.128;2023-07-28T10:21:06;17.90;99.90
6379;DHT22;3222;48.858;10.128;2023-07-28T10:23:34;17.90;99.90
6379;DHT22;3222;48.858;10.128;2023-07-28T10:26:03;17.90;99.90
6379;DHT22;3222;48.858;10.128;2023-07-28T10:28:35;17.90;99.90
6379;DHT22;3222;48.858;10.128;2023-07-28T10:31:05;17.90;99.90
6379;DHT22;3222;48.858;10.128;2023-07-28T10:33:39;17.90;99.90
6379;DHT22;3222;48.858;10.128;2023-07-28T10:41:35;18.00;99.90
6379;DHT22;3222;48.858;10.128;2023-07-28T10:44:01;17.90;99.90
6379;DHT22;3222;48.858;10.128;2023-07-28T10:46:27;18.00;99.90
6379;DHT22;3222;48.858;10.128;2023-07-28T10:48:53;18.10;99.90
6379;DHT22;3222;48.858;10.128;2023-07-28T10:51:26;18.10;99.90
6379;DHT22;3222;48.858;10.128;2023-07-28T10:53:59;18.20;99.90
6379;DHT22;3222;48.858;10.128;2023-07-28T10:56:25;18.20;99.90
6379;DHT22;3222;48.858;10.128;2023-07-28T10:58:58;18.30;99.90
6379;DHT22;3222;48.858;10.128;2023-07-28T11:01:34;18.30;99.90
6379;DHT22;3222;48.858;10.128;2023-07-28T11:06:32;18.50;99.90
6379;DHT22;3222;48.858;10.128;2023-07-28T11:08:58;18.60;99.90
6379;DHT22;3222;48.858;10.128;2023-07-28T11:11:23;18.50;99.90
6379;DHT22;3222;48.858;10.128;2023-07-28T11:13:49;18.50;99.90
6379;DHT22;3222;48.858;10.128;2023-07-28T11:16:15;18.60;99.90
6379;DHT22;3222;48.858;10.128;2023-07-28T11:18:40;18.60;99.90
6379;DHT22;3222;48.858;10.128;2023-07-28T11:21:06;18.70;99.90
6379;DHT22;3222;48.858;10.128;2023-07-28T11:23:31;18.70;99.90
6379;DHT22;3222;48.858;10.128;2023-07-28T11:25:58;18.70;99.90
6379;DHT22;3222;48.858;10.128;2023-07-28T11:28:24;18.80;99.90
6379;DHT22;3222;48.858;10.128;2023-07-28T11:30:50;18.70;99.90
6379;DHT22;3222;48.858;10.128;2023-07-28T11:33:16;18.70;99.90
6379;DHT22;3222;48.858;10.128;2023-07-28T11:35:45;18.70;99.90
6379;DHT22;3222;48.858;10.128;2023-07-28T11:38:12;18.70;99.90
6379;DHT22;3222;48.858;10.128;2023-07-28T11:40:40;18.70;99.90
6379;DHT22;3222;48.858;10.128;2023-07-28T11:43:06;18.70;99.90
6379;DHT22;3222;48.858;10.128;2023-07-28T11:45:32;18.70;99.90
6379;DHT22;3222;48.858;10.128;2023-07-28T11:47:59;18.70;99.90
6379;DHT22;3222;48.858;10.128;2023-07-28T11:50:34;18.80;99.90
6379;DHT22;3222;48.858;10.128;2023-07-28T11:52:59;18.80;99.90
6379;DHT22;3222;48.858;10.128;2023-07-28T11:55:25;18.80;99.90
6379;DHT22;3222;48.858;10.128;2023-07-28T11:57:52;18.70;99.90
6379;DHT22;3222;48.858;10.128;2023-07-28T12:00:19;18.80;99.90
6379;DHT22;3222;48.858;10.128;2023-07-28T12:03:01;18.80;99.90
6379;DHT22;3222;48.858;10.128;2023-07-28T12:05:29;18.70;99.90
6379;DHT22;3222;48.858;10.128;2023-07-28T12:07:55;18.70;99.90
6379;DHT22;3222;48.858;10.128;2023-07-28T12:10:21;18.70;99.90
6379;DHT22;3222;48.858;10.128;2023-07-28T12:12:47;18.70;99.90
6379;DHT22;3222;48.858;10.128;2023-07-28T12:15:27;18.60;99.90
6379;DHT22;3222;48.858;10.128;2023-07-28T12:18:19;18.60;99.90
6379;DHT22;3222;48.858;10.128;2023-07-28T12:20:46;18.70;99.90
6379;DHT22;3222;48.858;10.128;2023-07-28T12:23:16;18.70;99.90
6379;DHT22;3222;48.858;10.128;2023-07-28T12:25:43;18.80;99.90
6379;DHT22;3222;48.858;10.128;2023-07-28T12:28:10;18.90;99.90
6379;DHT22;3222;48.858;10.128;2023-07-28T12:30:36;18.90;99.90
6379;DHT22;3222;48.858;10.128;2023-07-28T12:33:03;18.90;99.90
6379;DHT22;3222;48.858;10.128;2023-07-28T12:35:30;18.90;99.90
6379;DHT22;3222;48.858;10.128;2023-07-28T12:37:58;19.00;99.90
6379;DHT22;3222;48.858;10.128;2023-07-28T12:40:29;19.00;99.90
6379;DHT22;3222;48.858;10.128;2023-07-28T12:42:55;19.00;99.90
6379;DHT22;3222;48.858;10.128;2023-07-28T12:45:21;19.00;99.90
6379;DHT22;3222;48.858;10.128;2023-07-28T12:47:47;19.10;99.90
6379;DHT22;3222;48.858;10.128;2023-07-28T12:50:13;19.00;99.90
6379;DHT22;3222;48.858;10.128;2023-07-28T12:52:39;19.00;99.90
6379;DHT22;3222;48.858;10.128;2023-07-28T12:55:05;19.10;99.90
6379;DHT22;3222;48.858;10.128;2023-07-28T12:57:31;19.00;99.90
6379;DHT22;3222;48.858;10.128;2023-07-28T12:59:58;19.20;99.90
6379;DHT22;3222;48.858;10.128;2023-07-28T13:02:23;19.20;99.90
6379;DHT22;3222;48.858;10.128;2023-07-28T13:04:49;19.20;99.90
6379;DHT22;3222;48.858;10.128;2023-07-28T13:07:14;19.20;99.90
6379;DHT22;3222;48.858;10.128;2023-07-28T13:09:40;19.20;99.90
6379;DHT22;3222;48.858;10.128;2023-07-28T13:12:07;19.30;99.90
6379;DHT22;3222;48.858;10.128;2023-07-28T13:14:34;19.30;99.90
6379;DHT22;3222;48.858;10.128;2023-07-28T13:16:59;19.40;99.90
6379;DHT22;3222;48.858;10.128;2023-07-28T13:19:25;19.30;99.90
6379;DHT22;3222;48.858;10.128;2023-07-28T13:21:51;19.30;99.90
6379;DHT22;3222;48.858;10.128;2023-07-28T13:24:16;19.30;99.90
6379;DHT22;3222;48.858;10.128;2023-07-28T13:26:42;19.30;99.90
6379;DHT22;3222;48.858;10.128;2023-07-28T13:29:08;19.30;99.90
6379;DHT22;3222;48.858;10.128;2023-07-28T13:31:33;19.40;99.90
6379;DHT22;3222;48.858;10.128;2023-07-28T13:33:59;19.30;99.90
6379;DHT22;3222;48.858;10.128;2023-07-28T13:36:24;19.30;99.90
6379;DHT22;3222;48.858;10.128;2023-07-28T13:38:50;19.20;99.90
6379;DHT22;3222;48.858;10.128;2023-07-28T13:41:16;19.30;99.90
6379;DHT22;3222;48.858;10.128;2023-07-28T13:43:41;19.20;99.90
6379;DHT22;3222;48.858;10.128;2023-07-28T13:46:07;19.30;99.90
6379;DHT22;3222;48.858;10.128;2023-07-28T13:48:34;19.20;99.90
6379;DHT22;3222;48.858;10.128;2023-07-28T13:51:02;19.20;99.90
6379;DHT22;3222;48.858;10.128;2023-07-28T13:53:28;19.30;99.90
6379;DHT22;3222;48.858;10.128;2023-07-28T13:55:54;19.20;99.90
6379;DHT22;3222;48.858;10.128;2023-07-28T13:58:20;19.30;99.90
6379;DHT22;3222;48.858;10.128;2023-07-28T14:00:46;19.30;99.90
6379;DHT22;3222;48.858;10.128;2023-07-28T14:03:12;19.30;99.90
6379;DHT22;3222;48.858;10.128;2023-07-28T14:05:38;19.30;99.90
6379;DHT22;3222;48.858;10.128;2023-07-28T14:08:04;19.20;99.90
6379;DHT22;3222;48.858;10.128;2023-07-28T14:10:29;19.20;99.90
6379;DHT22;3222;48.858;10.128;2023-07-28T14:12:57;19.20;99.90
6379;DHT22;3222;48.858;10.128;2023-07-28T14:15:23;19.30;99.90
6379;DHT22;3222;48.858;10.128;2023-07-28T14:17:49;19.30;99.90
6379;DHT22;3222;48.858;10.128;2023-07-28T14:20:15;19.20;99.90
6379;DHT22;3222;48.858;10.128;2023-07-28T14:22:41;19.30;99.90
6379;DHT22;3222;48.858;10.128;2023-07-28T14:25:07;19.30;99.90
6379;DHT22;3222;48.858;10.128;2023-07-28T14:27:33;19.20;99.90
6379;DHT22;3222;48.858;10.128;2023-07-28T14:29:58;19.20;99.90
6379;DHT22;3222;48.858;10.128;2023-07-28T14:32:24;19.20;99.90
6379;DHT22;3222;48.858;10.128;2023-07-28T14:34:49;19.20;99.90
6379;DHT22;3222;48.858;10.128;2023-07-28T14:37:15;19.20;99.90
6379;DHT22;3222;48.858;10.128;2023-07-28T14:39:42;19.10;99.90
6379;DHT22;3222;48.858;10.128;2023-07-28T14:42:07;19.00;99.90
6379;DHT22;3222;48.858;10.128;2023-07-28T14:44:33;19.00;99.90
6379;DHT22;3222;48.858;10.128;2023-07-28T14:46:59;18.90;99.90
6379;DHT22;3222;48.858;10.128;2023-07-28T14:49:24;18.90;99.90
6379;DHT22;3222;48.858;10.128;2023-07-28T14:51:54;18.90;99.90
6379;DHT22;3222;48.858;10.128;2023-07-28T14:54:19;18.90;99.90
6379;DHT22;3222;48.858;10.128;2023-07-28T14:56:45;18.90;99.90
6379;DHT22;3222;48.858;10.128;2023-07-28T14:59:11;18.90;99.90
6379;DHT22;3222;48.858;10.128;2023-07-28T15:01:37;18.90;99.90
6379;DHT22;3222;48.858;10.128;2023-07-28T15:04:02;18.90;99.90
6379;DHT22;3222;48.858;10.128;2023-07-28T15:06:30;18.90;99.90
6379;DHT22;3222;48.858;10.128;2023-07-28T15:08:56;18.90;99.90
6379;DHT22;3222;48.858;10.128;2023-07-28T15:11:22;18.90;99.90
6379;DHT22;3222;48.858;10.128;2023-07-28T15:13:49;18.80;99.90
6379;DHT22;3222;48.858;10.128;2023-07-28T15:16:15;18.90;99.90
6379;DHT22;3222;48.858;10.128;2023-07-28T15:18:41;18.90;99.90
6379;DHT22;3222;48.858;10.128;2023-07-28T15:21:06;18.90;99.90
6379;DHT22;3222;48.858;10.128;2023-07-28T15:23:32;19.00;99.90
6379;DHT22;3222;48.858;10.128;2023-07-28T15:25:57;18.90;99.90
6379;DHT22;3222;48.858;10.128;2023-07-28T15:28:23;18.90;99.90
6379;DHT22;3222;48.858;10.128;2023-07-28T15:30:49;18.80;99.90
6379;DHT22;3222;48.858;10.128;2023-07-28T15:33:19;18.80;99.90
6379;DHT22;3222;48.858;10.128;2023-07-28T15:35:45;18.80;99.90
6379;DHT22;3222;48.858;10.128;2023-07-28T15:38:11;18.80;99.90
6379;DHT22;3222;48.858;10.128;2023-07-28T15:40:37;18.90;99.90
6379;DHT22;3222;48.858;10.128;2023-07-28T15:43:02;18.90;99.90
6379;DHT22;3222;48.858;10.128;2023-07-28T15:45:28;18.90;99.90
6379;DHT22;3222;48.858;10.128;2023-07-28T15:47:54;18.90;99.90
6379;DHT22;3222;48.858;10.128;2023-07-28T15:50:19;18.90;99.90
6379;DHT22;3222;48.858;10.128;2023-07-28T15:52:45;18.80;99.90
6379;DHT22;3222;48.858;10.128;2023-07-28T15:55:11;18.90;99.90
6379;DHT22;3222;48.858;10.128;2023-07-28T15:57:36;18.80;99.90